sensor_id;sensor_type;location;lat;lon;timestamp;P1;durP1;ratioP1;P2;durP2;ratioP2
43819;SDS011;67762;52.476;6.046;2023-03-21T00:03:31;89.70;;;80.35;;
43819;SDS011;67762;52.476;6.046;2023-03-21T00:05:58;84.53;;;75.85;;
43819;SDS011;67762;52.476;6.046;2023-03-21T00:08:28;74.60;;;67.68;;
43819;SDS011;67762;52.476;6.046;2023-03-21T00:10:58;77.78;;;70.80;;
43819;SDS011;67762;52.476;6.046;2023-03-21T00:13:26;89.95;;;80.93;;
43819;SDS011;67762;52.476;6.046;2023-03-21T00:15:57;80.78;;;72.75;;
43819;SDS011;67762;52.476;6.046;2023-03-21T00:18:28;81.28;;;73.22;;
43819;SDS011;67762;52.476;6.046;2023-03-21T00:20:57;89.43;;;80.07;;
43819;SDS011;67762;52.476;6.046;2023-03-21T00:23:24;92.15;;;82.00;;
43819;SDS011;67762;52.476;6.046;2023-03-21T00:25:52;94.30;;;84.20;;
43819;SDS011;67762;52.476;6.046;2023-03-21T00:28:17;85.97;;;77.88;;
43819;SDS011;67762;52.476;6.046;2023-03-21T00:30:43;84.30;;;75.63;;
43819;SDS011;67762;52.476;6.046;2023-03-21T00:33:09;110.90;;;82.80;;
43819;SDS011;67762;52.476;6.046;2023-03-21T00:35:34;110.60;;;86.78;;
43819;SDS011;67762;52.476;6.046;2023-03-21T00:38:00;114.97;;;86.75;;
43819;SDS011;67762;52.476;6.046;2023-03-21T00:40:26;99.95;;;82.25;;
43819;SDS011;67762;52.476;6.046;2023-03-21T00:42:52;76.70;;;69.85;;
43819;SDS011;67762;52.476;6.046;2023-03-21T00:45:18;92.80;;;75.03;;
43819;SDS011;67762;52.476;6.046;2023-03-21T00:47:46;85.55;;;76.53;;
43819;SDS011;67762;52.476;6.046;2023-03-21T00:50:12;94.88;;;80.82;;
43819;SDS011;67762;52.476;6.046;2023-03-21T00:52:38;74.45;;;67.93;;
43819;SDS011;67762;52.476;6.046;2023-03-21T00:55:04;86.43;;;77.07;;
43819;SDS011;67762;52.476;6.046;2023-03-21T00:57:30;93.18;;;79.97;;
43819;SDS011;67762;52.476;6.046;2023-03-21T00:59:56;74.10;;;67.43;;
43819;SDS011;67762;52.476;6.046;2023-03-21T01:02:23;86.57;;;77.13;;
43819;SDS011;67762;52.476;6.046;2023-03-21T01:04:54;62.58;;;58.10;;
43819;SDS011;67762;52.476;6.046;2023-03-21T01:07:19;67.53;;;61.15;;
43819;SDS011;67762;52.476;6.046;2023-03-21T01:09:45;81.53;;;72.57;;
43819;SDS011;67762;52.476;6.046;2023-03-21T01:12:11;81.03;;;71.30;;
43819;SDS011;67762;52.476;6.046;2023-03-21T01:14:36;80.10;;;71.43;;
43819;SDS011;67762;52.476;6.046;2023-03-21T01:17:03;76.03;;;68.25;;
43819;SDS011;67762;52.476;6.046;2023-03-21T01:19:29;96.53;;;76.07;;
43819;SDS011;67762;52.476;6.046;2023-03-21T01:21:55;70.07;;;64.18;;
43819;SDS011;67762;52.476;6.046;2023-03-21T01:24:21;63.55;;;59.28;;
43819;SDS011;67762;52.476;6.046;2023-03-21T01:26:46;86.10;;;71.35;;
43819;SDS011;67762;52.476;6.046;2023-03-21T01:29:12;75.72;;;68.57;;
43819;SDS011;67762;52.476;6.046;2023-03-21T01:31:38;102.70;;;77.65;;
43819;SDS011;67762;52.476;6.046;2023-03-21T01:34:05;76.63;;;69.28;;
43819;SDS011;67762;52.476;6.046;2023-03-21T01:36:31;83.25;;;74.38;;
43819;SDS011;67762;52.476;6.046;2023-03-21T01:39:02;86.28;;;75.32;;
43819;SDS011;67762;52.476;6.046;2023-03-21T01:41:30;98.70;;;77.05;;
43819;SDS011;67762;52.476;6.046;2023-03-21T01:44:01;77.18;;;69.13;;
43819;SDS011;67762;52.476;6.046;2023-03-21T01:46:40;69.43;;;62.72;;
43819;SDS011;67762;52.476;6.046;2023-03-21T01:49:39;74.25;;;66.93;;
43819;SDS011;67762;52.476;6.046;2023-03-21T01:52:18;69.28;;;62.95;;
43819;SDS011;67762;52.476;6.046;2023-03-21T01:54:45;80.70;;;73.30;;
43819;SDS011;67762;52.476;6.046;2023-03-21T01:57:15;71.10;;;65.10;;
43819;SDS011;67762;52.476;6.046;2023-03-21T01:59:56;68.53;;;62.38;;
43819;SDS011;67762;52.476;6.046;2023-03-21T02:02:44;89.38;;;77.13;;
43819;SDS011;67762;52.476;6.046;2023-03-21T02:08:22;88.25;;;79.30;;
43819;SDS011;67762;52.476;6.046;2023-03-21T02:10:48;83.15;;;74.13;;
43819;SDS011;67762;52.476;6.046;2023-03-21T02:13:25;93.15;;;76.22;;
43819;SDS011;67762;52.476;6.046;2023-03-21T02:15:56;89.97;;;73.57;;
43819;SDS011;67762;52.476;6.046;2023-03-21T02:18:44;90.60;;;80.72;;
43819;SDS011;67762;52.476;6.046;2023-03-21T02:30:39;92.32;;;80.95;;
43819;SDS011;67762;52.476;6.046;2023-03-21T02:47:41;77.85;;;70.45;;
43819;SDS011;67762;52.476;6.046;2023-03-21T02:50:18;91.20;;;76.00;;
43819;SDS011;67762;52.476;6.046;2023-03-21T02:52:49;79.95;;;70.90;;
43819;SDS011;67762;52.476;6.046;2023-03-21T02:55:24;85.88;;;72.75;;
43819;SDS011;67762;52.476;6.046;2023-03-21T02:57:59;96.57;;;77.85;;
43819;SDS011;67762;52.476;6.046;2023-03-21T03:00:31;97.25;;;78.85;;
43819;SDS011;67762;52.476;6.046;2023-03-21T03:02:59;93.60;;;76.00;;
43819;SDS011;67762;52.476;6.046;2023-03-21T03:05:26;71.32;;;65.28;;
43819;SDS011;67762;52.476;6.046;2023-03-21T03:16:32;81.00;;;72.40;;
43819;SDS011;67762;52.476;6.046;2023-03-21T03:19:25;70.32;;;65.45;;
43819;SDS011;67762;52.476;6.046;2023-03-21T03:22:16;72.53;;;65.85;;
43819;SDS011;67762;52.476;6.046;2023-03-21T03:24:44;80.43;;;73.03;;
43819;SDS011;67762;52.476;6.046;2023-03-21T03:27:18;92.75;;;78.25;;
43819;SDS011;67762;52.476;6.046;2023-03-21T03:29:51;98.90;;;77.40;;
43819;SDS011;67762;52.476;6.046;2023-03-21T03:32:33;79.38;;;71.60;;
43819;SDS011;67762;52.476;6.046;2023-03-21T03:35:04;76.60;;;69.97;;
43819;SDS011;67762;52.476;6.046;2023-03-21T03:37:32;81.38;;;73.72;;
43819;SDS011;67762;52.476;6.046;2023-03-21T03:40:14;84.38;;;76.22;;
43819;SDS011;67762;52.476;6.046;2023-03-21T03:42:55;79.15;;;71.90;;
43819;SDS011;67762;52.476;6.046;2023-03-21T03:45:33;73.95;;;67.75;;
43819;SDS011;67762;52.476;6.046;2023-03-21T03:48:45;83.93;;;75.55;;
43819;SDS011;67762;52.476;6.046;2023-03-21T03:50:57;81.15;;;73.22;;
43819;SDS011;67762;52.476;6.046;2023-03-21T03:54:11;78.15;;;72.22;;
43819;SDS011;67762;52.476;6.046;2023-03-21T03:56:40;80.20;;;73.95;;
43819;SDS011;67762;52.476;6.046;2023-03-21T03:59:06;74.65;;;68.10;;
43819;SDS011;67762;52.476;6.046;2023-03-21T04:02:03;67.20;;;62.10;;
43819;SDS011;67762;52.476;6.046;2023-03-21T04:04:30;68.15;;;63.03;;
43819;SDS011;67762;52.476;6.046;2023-03-21T04:06:56;82.97;;;74.50;;
43819;SDS011;67762;52.476;6.046;2023-03-21T04:09:23;80.60;;;72.32;;
43819;SDS011;67762;52.476;6.046;2023-03-21T04:11:50;116.80;;;89.25;;
43819;SDS011;67762;52.476;6.046;2023-03-21T04:14:15;107.55;;;82.50;;
43819;SDS011;67762;52.476;6.046;2023-03-21T04:16:43;78.53;;;69.85;;
43819;SDS011;67762;52.476;6.046;2023-03-21T04:19:08;102.72;;;82.47;;
43819;SDS011;67762;52.476;6.046;2023-03-21T04:21:34;99.15;;;78.07;;
43819;SDS011;67762;52.476;6.046;2023-03-21T04:24:00;77.43;;;70.38;;
43819;SDS011;67762;52.476;6.046;2023-03-21T04:26:26;104.85;;;84.82;;
43819;SDS011;67762;52.476;6.046;2023-03-21T04:29:17;79.28;;;71.22;;
43819;SDS011;67762;52.476;6.046;2023-03-21T04:31:57;85.22;;;76.63;;
43819;SDS011;67762;52.476;6.046;2023-03-21T04:34:24;97.68;;;80.97;;
43819;SDS011;67762;52.476;6.046;2023-03-21T04:36:55;71.20;;;65.85;;
43819;SDS011;67762;52.476;6.046;2023-03-21T04:39:21;72.57;;;66.03;;
43819;SDS011;67762;52.476;6.046;2023-03-21T04:41:49;78.00;;;70.80;;
43819;SDS011;67762;52.476;6.046;2023-03-21T04:44:15;119.15;;;90.30;;
43819;SDS011;67762;52.476;6.046;2023-03-21T04:46:42;90.15;;;80.63;;
43819;SDS011;67762;52.476;6.046;2023-03-21T04:49:09;78.80;;;70.10;;
43819;SDS011;67762;52.476;6.046;2023-03-21T04:51:35;72.88;;;67.15;;
43819;SDS011;67762;52.476;6.046;2023-03-21T04:54:03;86.97;;;76.75;;
43819;SDS011;67762;52.476;6.046;2023-03-21T04:56:30;76.75;;;69.22;;
43819;SDS011;67762;52.476;6.046;2023-03-21T04:58:57;82.63;;;74.47;;
43819;SDS011;67762;52.476;6.046;2023-03-21T05:01:24;80.40;;;72.45;;
43819;SDS011;67762;52.476;6.046;2023-03-21T05:03:55;69.72;;;63.67;;
43819;SDS011;67762;52.476;6.046;2023-03-21T05:06:22;87.43;;;77.65;;
43819;SDS011;67762;52.476;6.046;2023-03-21T05:08:48;77.75;;;70.07;;
43819;SDS011;67762;52.476;6.046;2023-03-21T05:11:14;83.07;;;75.18;;
43819;SDS011;67762;52.476;6.046;2023-03-21T05:13:40;85.03;;;74.88;;
43819;SDS011;67762;52.476;6.046;2023-03-21T05:16:06;69.30;;;64.15;;
43819;SDS011;67762;52.476;6.046;2023-03-21T05:18:32;73.95;;;67.47;;
43819;SDS011;67762;52.476;6.046;2023-03-21T05:21:07;78.10;;;70.60;;
43819;SDS011;67762;52.476;6.046;2023-03-21T05:23:36;81.55;;;72.63;;
43819;SDS011;67762;52.476;6.046;2023-03-21T05:26:04;70.38;;;64.60;;
43819;SDS011;67762;52.476;6.046;2023-03-21T05:28:48;70.32;;;64.32;;
43819;SDS011;67762;52.476;6.046;2023-03-21T05:31:15;63.50;;;59.33;;
43819;SDS011;67762;52.476;6.046;2023-03-21T05:33:43;68.53;;;63.80;;
43819;SDS011;67762;52.476;6.046;2023-03-21T05:36:10;63.67;;;59.80;;
43819;SDS011;67762;52.476;6.046;2023-03-21T05:38:37;88.65;;;81.47;;
43819;SDS011;67762;52.476;6.046;2023-03-21T05:41:07;64.80;;;59.13;;
43819;SDS011;67762;52.476;6.046;2023-03-21T05:43:33;82.00;;;74.00;;
43819;SDS011;67762;52.476;6.046;2023-03-21T05:45:59;65.78;;;61.15;;
43819;SDS011;67762;52.476;6.046;2023-03-21T05:48:27;66.78;;;61.80;;
43819;SDS011;67762;52.476;6.046;2023-03-21T05:51:05;70.88;;;64.63;;
43819;SDS011;67762;52.476;6.046;2023-03-21T05:53:31;70.93;;;64.38;;
43819;SDS011;67762;52.476;6.046;2023-03-21T05:55:56;67.88;;;63.63;;
43819;SDS011;67762;52.476;6.046;2023-03-21T05:58:51;74.85;;;67.75;;
43819;SDS011;67762;52.476;6.046;2023-03-21T06:01:18;71.50;;;65.82;;
43819;SDS011;67762;52.476;6.046;2023-03-21T06:03:53;70.80;;;64.95;;
43819;SDS011;67762;52.476;6.046;2023-03-21T06:06:23;68.68;;;63.05;;
43819;SDS011;67762;52.476;6.046;2023-03-21T06:08:54;65.95;;;61.13;;
43819;SDS011;67762;52.476;6.046;2023-03-21T06:11:30;65.65;;;61.47;;
43819;SDS011;67762;52.476;6.046;2023-03-21T06:14:31;79.93;;;73.60;;
43819;SDS011;67762;52.476;6.046;2023-03-21T06:17:20;80.68;;;74.10;;
43819;SDS011;67762;52.476;6.046;2023-03-21T06:19:51;79.53;;;72.70;;
43819;SDS011;67762;52.476;6.046;2023-03-21T06:22:23;61.35;;;57.10;;
43819;SDS011;67762;52.476;6.046;2023-03-21T06:24:48;63.50;;;59.42;;
43819;SDS011;67762;52.476;6.046;2023-03-21T06:27:16;79.85;;;72.38;;
43819;SDS011;67762;52.476;6.046;2023-03-21T06:29:52;87.78;;;78.22;;
43819;SDS011;67762;52.476;6.046;2023-03-21T06:32:18;75.80;;;68.90;;
43819;SDS011;67762;52.476;6.046;2023-03-21T06:34:48;76.93;;;70.03;;
43819;SDS011;67762;52.476;6.046;2023-03-21T06:37:14;69.22;;;64.57;;
43819;SDS011;67762;52.476;6.046;2023-03-21T06:39:40;86.50;;;77.72;;
43819;SDS011;67762;52.476;6.046;2023-03-21T06:42:07;76.20;;;68.60;;
43819;SDS011;67762;52.476;6.046;2023-03-21T06:44:33;74.60;;;67.45;;
43819;SDS011;67762;52.476;6.046;2023-03-21T06:47:04;75.60;;;68.70;;
43819;SDS011;67762;52.476;6.046;2023-03-21T06:49:30;70.60;;;64.88;;
43819;SDS011;67762;52.476;6.046;2023-03-21T06:51:59;72.63;;;66.50;;
43819;SDS011;67762;52.476;6.046;2023-03-21T06:54:25;71.13;;;65.38;;
43819;SDS011;67762;52.476;6.046;2023-03-21T06:56:56;65.22;;;60.22;;
43819;SDS011;67762;52.476;6.046;2023-03-21T06:59:26;66.07;;;61.20;;
43819;SDS011;67762;52.476;6.046;2023-03-21T07:01:56;67.70;;;62.67;;
43819;SDS011;67762;52.476;6.046;2023-03-21T07:04:23;73.75;;;66.97;;
43819;SDS011;67762;52.476;6.046;2023-03-21T07:06:49;65.18;;;61.10;;
43819;SDS011;67762;52.476;6.046;2023-03-21T07:09:16;78.65;;;71.47;;
43819;SDS011;67762;52.476;6.046;2023-03-21T07:11:43;81.03;;;73.20;;
43819;SDS011;67762;52.476;6.046;2023-03-21T07:14:08;66.95;;;61.53;;
43819;SDS011;67762;52.476;6.046;2023-03-21T07:16:34;67.03;;;60.95;;
43819;SDS011;67762;52.476;6.046;2023-03-21T07:19:00;74.05;;;66.55;;
43819;SDS011;67762;52.476;6.046;2023-03-21T07:21:26;69.57;;;63.00;;
43819;SDS011;67762;52.476;6.046;2023-03-21T07:23:52;75.65;;;68.32;;
43819;SDS011;67762;52.476;6.046;2023-03-21T07:26:18;75.78;;;68.20;;
43819;SDS011;67762;52.476;6.046;2023-03-21T07:28:45;69.60;;;64.13;;
43819;SDS011;67762;52.476;6.046;2023-03-21T07:31:11;71.88;;;65.55;;
43819;SDS011;67762;52.476;6.046;2023-03-21T07:33:38;78.28;;;71.28;;
43819;SDS011;67762;52.476;6.046;2023-03-21T07:36:07;65.10;;;60.13;;
43819;SDS011;67762;52.476;6.046;2023-03-21T07:38:36;67.82;;;62.55;;
43819;SDS011;67762;52.476;6.046;2023-03-21T07:41:02;67.68;;;62.65;;
43819;SDS011;67762;52.476;6.046;2023-03-21T07:43:31;66.90;;;61.92;;
43819;SDS011;67762;52.476;6.046;2023-03-21T07:45:57;67.05;;;61.72;;
43819;SDS011;67762;52.476;6.046;2023-03-21T07:48:25;65.55;;;60.47;;
43819;SDS011;67762;52.476;6.046;2023-03-21T07:50:51;83.38;;;77.55;;
43819;SDS011;67762;52.476;6.046;2023-03-21T07:53:17;72.43;;;66.07;;
43819;SDS011;67762;52.476;6.046;2023-03-21T07:55:44;68.05;;;62.72;;
43819;SDS011;67762;52.476;6.046;2023-03-21T07:58:09;73.63;;;67.28;;
43819;SDS011;67762;52.476;6.046;2023-03-21T08:00:35;74.32;;;67.72;;
43819;SDS011;67762;52.476;6.046;2023-03-21T08:03:01;63.85;;;59.50;;
43819;SDS011;67762;52.476;6.046;2023-03-21T08:05:32;78.45;;;71.20;;
43819;SDS011;67762;52.476;6.046;2023-03-21T08:07:59;69.97;;;63.78;;
43819;SDS011;67762;52.476;6.046;2023-03-21T08:10:26;67.38;;;62.28;;
43819;SDS011;67762;52.476;6.046;2023-03-21T08:12:52;71.38;;;65.30;;
43819;SDS011;67762;52.476;6.046;2023-03-21T08:15:17;73.22;;;66.22;;
43819;SDS011;67762;52.476;6.046;2023-03-21T08:17:43;76.15;;;69.60;;
43819;SDS011;67762;52.476;6.046;2023-03-21T08:20:13;72.13;;;66.22;;
43819;SDS011;67762;52.476;6.046;2023-03-21T08:22:40;63.40;;;59.10;;
43819;SDS011;67762;52.476;6.046;2023-03-21T08:25:07;69.68;;;64.13;;
43819;SDS011;67762;52.476;6.046;2023-03-21T08:27:38;70.35;;;64.63;;
43819;SDS011;67762;52.476;6.046;2023-03-21T08:30:08;78.10;;;72.05;;
43819;SDS011;67762;52.476;6.046;2023-03-21T08:32:36;67.57;;;63.75;;
43819;SDS011;67762;52.476;6.046;2023-03-21T08:35:03;70.03;;;64.60;;
43819;SDS011;67762;52.476;6.046;2023-03-21T08:37:34;74.53;;;68.22;;
43819;SDS011;67762;52.476;6.046;2023-03-21T08:40:04;69.72;;;63.67;;
43819;SDS011;67762;52.476;6.046;2023-03-21T08:42:33;74.28;;;67.78;;
43819;SDS011;67762;52.476;6.046;2023-03-21T08:44:59;74.55;;;68.32;;
43819;SDS011;67762;52.476;6.046;2023-03-21T08:47:26;61.70;;;57.22;;
43819;SDS011;67762;52.476;6.046;2023-03-21T08:49:51;69.82;;;64.55;;
43819;SDS011;67762;52.476;6.046;2023-03-21T08:52:17;66.15;;;61.70;;
43819;SDS011;67762;52.476;6.046;2023-03-21T08:54:42;66.40;;;61.97;;
43819;SDS011;67762;52.476;6.046;2023-03-21T08:57:09;71.22;;;65.47;;
43819;SDS011;67762;52.476;6.046;2023-03-21T08:59:36;65.75;;;62.05;;
43819;SDS011;67762;52.476;6.046;2023-03-21T09:02:02;70.25;;;64.75;;
43819;SDS011;67762;52.476;6.046;2023-03-21T09:04:27;71.32;;;65.30;;
43819;SDS011;67762;52.476;6.046;2023-03-21T09:06:55;68.75;;;63.72;;
43819;SDS011;67762;52.476;6.046;2023-03-21T09:09:21;59.67;;;55.83;;
43819;SDS011;67762;52.476;6.046;2023-03-21T09:11:46;60.70;;;56.60;;
43819;SDS011;67762;52.476;6.046;2023-03-21T09:14:12;58.95;;;55.47;;
43819;SDS011;67762;52.476;6.046;2023-03-21T09:16:38;63.35;;;59.28;;
43819;SDS011;67762;52.476;6.046;2023-03-21T09:19:03;68.50;;;62.97;;
43819;SDS011;67762;52.476;6.046;2023-03-21T09:21:33;65.03;;;60.17;;
43819;SDS011;67762;52.476;6.046;2023-03-21T09:24:00;75.47;;;68.97;;
43819;SDS011;67762;52.476;6.046;2023-03-21T09:26:27;64.72;;;59.08;;
43819;SDS011;67762;52.476;6.046;2023-03-21T09:28:54;55.65;;;51.97;;
43819;SDS011;67762;52.476;6.046;2023-03-21T09:31:20;70.13;;;64.82;;
43819;SDS011;67762;52.476;6.046;2023-03-21T09:33:47;71.35;;;66.65;;
43819;SDS011;67762;52.476;6.046;2023-03-21T09:36:14;60.20;;;55.42;;
43819;SDS011;67762;52.476;6.046;2023-03-21T09:38:43;67.65;;;61.85;;
43819;SDS011;67762;52.476;6.046;2023-03-21T09:41:19;72.00;;;66.40;;
43819;SDS011;67762;52.476;6.046;2023-03-21T09:44:10;64.93;;;60.67;;
43819;SDS011;67762;52.476;6.046;2023-03-21T09:49:26;58.63;;;54.97;;
43819;SDS011;67762;52.476;6.046;2023-03-21T09:51:59;62.42;;;58.10;;
43819;SDS011;67762;52.476;6.046;2023-03-21T09:54:40;64.05;;;60.10;;
43819;SDS011;67762;52.476;6.046;2023-03-21T09:59:52;62.55;;;58.95;;
43819;SDS011;67762;52.476;6.046;2023-03-21T10:04:59;76.47;;;71.45;;
43819;SDS011;67762;52.476;6.046;2023-03-21T10:07:25;56.05;;;52.78;;
43819;SDS011;67762;52.476;6.046;2023-03-21T10:09:56;57.78;;;53.55;;
43819;SDS011;67762;52.476;6.046;2023-03-21T10:12:24;56.40;;;52.72;;
43819;SDS011;67762;52.476;6.046;2023-03-21T10:14:55;58.05;;;53.80;;
43819;SDS011;67762;52.476;6.046;2023-03-21T10:19:56;57.22;;;53.03;;
43819;SDS011;67762;52.476;6.046;2023-03-21T10:22:36;59.80;;;56.22;;
43819;SDS011;67762;52.476;6.046;2023-03-21T10:25:03;59.40;;;54.92;;
43819;SDS011;67762;52.476;6.046;2023-03-21T10:27:30;66.28;;;61.78;;
43819;SDS011;67762;52.476;6.046;2023-03-21T10:29:56;54.22;;;50.42;;
43819;SDS011;67762;52.476;6.046;2023-03-21T10:32:26;56.35;;;52.75;;
43819;SDS011;67762;52.476;6.046;2023-03-21T10:34:53;56.75;;;52.80;;
43819;SDS011;67762;52.476;6.046;2023-03-21T10:37:21;60.47;;;56.72;;
43819;SDS011;67762;52.476;6.046;2023-03-21T10:39:48;55.42;;;51.72;;
43819;SDS011;67762;52.476;6.046;2023-03-21T10:42:26;57.13;;;53.92;;
43819;SDS011;67762;52.476;6.046;2023-03-21T10:44:56;60.63;;;55.88;;
43819;SDS011;67762;52.476;6.046;2023-03-21T10:47:40;57.67;;;53.85;;
43819;SDS011;67762;52.476;6.046;2023-03-21T10:50:07;50.13;;;46.80;;
43819;SDS011;67762;52.476;6.046;2023-03-21T10:52:40;77.10;;;72.38;;
43819;SDS011;67762;52.476;6.046;2023-03-21T10:55:21;55.35;;;52.20;;
43819;SDS011;67762;52.476;6.046;2023-03-21T10:57:47;56.72;;;52.97;;
43819;SDS011;67762;52.476;6.046;2023-03-21T11:00:22;53.00;;;49.45;;
43819;SDS011;67762;52.476;6.046;2023-03-21T11:02:51;55.20;;;51.78;;
43819;SDS011;67762;52.476;6.046;2023-03-21T11:07:47;51.42;;;48.33;;
43819;SDS011;67762;52.476;6.046;2023-03-21T11:10:26;54.28;;;51.05;;
43819;SDS011;67762;52.476;6.046;2023-03-21T11:12:58;71.55;;;67.10;;
43819;SDS011;67762;52.476;6.046;2023-03-21T11:15:29;47.22;;;44.30;;
43819;SDS011;67762;52.476;6.046;2023-03-21T11:18:17;51.10;;;47.40;;
43819;SDS011;67762;52.476;6.046;2023-03-21T11:20:49;53.40;;;50.15;;
43819;SDS011;67762;52.476;6.046;2023-03-21T11:23:15;65.18;;;61.17;;
43819;SDS011;67762;52.476;6.046;2023-03-21T11:25:41;54.50;;;51.53;;
43819;SDS011;67762;52.476;6.046;2023-03-21T11:28:08;50.15;;;47.05;;
43819;SDS011;67762;52.476;6.046;2023-03-21T11:30:39;67.88;;;64.10;;
43819;SDS011;67762;52.476;6.046;2023-03-21T11:33:15;50.15;;;46.20;;
43819;SDS011;67762;52.476;6.046;2023-03-21T11:35:43;51.78;;;48.63;;
43819;SDS011;67762;52.476;6.046;2023-03-21T11:38:28;56.35;;;52.80;;
43819;SDS011;67762;52.476;6.046;2023-03-21T11:40:59;57.78;;;54.50;;
43819;SDS011;67762;52.476;6.046;2023-03-21T11:43:30;66.22;;;62.35;;
43819;SDS011;67762;52.476;6.046;2023-03-21T11:46:12;57.60;;;53.95;;
43819;SDS011;67762;52.476;6.046;2023-03-21T11:48:42;46.33;;;43.38;;
43819;SDS011;67762;52.476;6.046;2023-03-21T11:54:13;72.72;;;68.68;;
43819;SDS011;67762;52.476;6.046;2023-03-21T11:56:49;48.65;;;45.63;;
43819;SDS011;67762;52.476;6.046;2023-03-21T11:59:19;69.47;;;65.35;;
43819;SDS011;67762;52.476;6.046;2023-03-21T12:09:51;49.58;;;46.33;;
43819;SDS011;67762;52.476;6.046;2023-03-21T12:12:28;48.45;;;45.45;;
43819;SDS011;67762;52.476;6.046;2023-03-21T12:14:58;53.58;;;50.40;;
43819;SDS011;67762;52.476;6.046;2023-03-21T12:31:17;52.40;;;49.28;;
43819;SDS011;67762;52.476;6.046;2023-03-21T12:39:24;56.28;;;52.55;;
43819;SDS011;67762;52.476;6.046;2023-03-21T12:44:38;69.28;;;65.40;;
43819;SDS011;67762;52.476;6.046;2023-03-21T12:47:15;50.80;;;47.53;;
43819;SDS011;67762;52.476;6.046;2023-03-21T12:49:50;56.45;;;53.20;;
43819;SDS011;67762;52.476;6.046;2023-03-21T12:52:19;52.33;;;49.03;;
43819;SDS011;67762;52.476;6.046;2023-03-21T12:55:08;66.32;;;62.63;;
43819;SDS011;67762;52.476;6.046;2023-03-21T12:57:51;51.50;;;48.00;;
43819;SDS011;67762;52.476;6.046;2023-03-21T13:00:24;49.95;;;46.75;;
43819;SDS011;67762;52.476;6.046;2023-03-21T13:03:07;60.30;;;56.78;;
43819;SDS011;67762;52.476;6.046;2023-03-21T13:05:45;53.63;;;50.42;;
43819;SDS011;67762;52.476;6.046;2023-03-21T13:10:51;43.67;;;41.08;;
43819;SDS011;67762;52.476;6.046;2023-03-21T13:13:18;50.88;;;47.55;;
43819;SDS011;67762;52.476;6.046;2023-03-21T13:18:37;56.55;;;53.53;;
43819;SDS011;67762;52.476;6.046;2023-03-21T13:21:30;42.80;;;40.63;;
43819;SDS011;67762;52.476;6.046;2023-03-21T13:27:12;61.22;;;57.42;;
43819;SDS011;67762;52.476;6.046;2023-03-21T13:29:42;56.25;;;52.58;;
43819;SDS011;67762;52.476;6.046;2023-03-21T13:32:45;50.83;;;47.60;;
43819;SDS011;67762;52.476;6.046;2023-03-21T13:35:15;48.67;;;45.22;;
43819;SDS011;67762;52.476;6.046;2023-03-21T13:38:19;48.00;;;44.75;;
43819;SDS011;67762;52.476;6.046;2023-03-21T13:40:56;53.67;;;50.70;;
43819;SDS011;67762;52.476;6.046;2023-03-21T13:49:00;47.83;;;44.83;;
43819;SDS011;67762;52.476;6.046;2023-03-21T13:59:12;47.90;;;45.10;;
43819;SDS011;67762;52.476;6.046;2023-03-21T14:05:00;41.30;;;38.88;;
43819;SDS011;67762;52.476;6.046;2023-03-21T14:07:50;45.85;;;43.35;;
43819;SDS011;67762;52.476;6.046;2023-03-21T14:10:28;80.88;;;75.95;;
43819;SDS011;67762;52.476;6.046;2023-03-21T14:13:01;61.70;;;58.08;;
43819;SDS011;67762;52.476;6.046;2023-03-21T14:15:31;53.47;;;50.47;;
43819;SDS011;67762;52.476;6.046;2023-03-21T14:18:04;56.83;;;53.60;;
43819;SDS011;67762;52.476;6.046;2023-03-21T14:20:32;79.13;;;74.32;;
43819;SDS011;67762;52.476;6.046;2023-03-21T14:23:03;103.22;;;97.30;;
43819;SDS011;67762;52.476;6.046;2023-03-21T14:25:31;92.55;;;86.93;;
43819;SDS011;67762;52.476;6.046;2023-03-21T14:28:02;42.55;;;39.78;;
43819;SDS011;67762;52.476;6.046;2023-03-21T14:30:32;54.88;;;52.00;;
43819;SDS011;67762;52.476;6.046;2023-03-21T14:33:46;77.15;;;72.90;;
43819;SDS011;67762;52.476;6.046;2023-03-21T14:35:56;76.50;;;71.72;;
43819;SDS011;67762;52.476;6.046;2023-03-21T14:38:25;51.95;;;48.95;;
43819;SDS011;67762;52.476;6.046;2023-03-21T14:40:53;59.30;;;55.72;;
43819;SDS011;67762;52.476;6.046;2023-03-21T14:43:22;80.40;;;75.90;;
43819;SDS011;67762;52.476;6.046;2023-03-21T14:45:52;53.78;;;50.83;;
43819;SDS011;67762;52.476;6.046;2023-03-21T14:48:27;54.75;;;51.60;;
43819;SDS011;67762;52.476;6.046;2023-03-21T14:51:03;69.00;;;65.07;;
43819;SDS011;67762;52.476;6.046;2023-03-21T14:53:34;89.95;;;84.95;;
43819;SDS011;67762;52.476;6.046;2023-03-21T14:56:05;61.92;;;58.63;;
43819;SDS011;67762;52.476;6.046;2023-03-21T14:58:37;80.20;;;75.32;;
43819;SDS011;67762;52.476;6.046;2023-03-21T15:01:05;52.35;;;49.45;;
43819;SDS011;67762;52.476;6.046;2023-03-21T15:03:37;64.90;;;61.33;;
43819;SDS011;67762;52.476;6.046;2023-03-21T15:06:04;61.20;;;57.80;;
43819;SDS011;67762;52.476;6.046;2023-03-21T15:08:37;50.75;;;47.72;;
43819;SDS011;67762;52.476;6.046;2023-03-21T15:11:06;66.07;;;62.50;;
43819;SDS011;67762;52.476;6.046;2023-03-21T15:13:39;49.40;;;46.72;;
43819;SDS011;67762;52.476;6.046;2023-03-21T15:16:14;53.90;;;50.38;;
43819;SDS011;67762;52.476;6.046;2023-03-21T15:18:40;59.08;;;55.08;;
43819;SDS011;67762;52.476;6.046;2023-03-21T15:21:08;71.95;;;67.80;;
43819;SDS011;67762;52.476;6.046;2023-03-21T15:23:41;48.10;;;45.30;;
43819;SDS011;67762;52.476;6.046;2023-03-21T15:26:17;54.13;;;50.70;;
43819;SDS011;67762;52.476;6.046;2023-03-21T15:28:45;51.17;;;48.22;;
43819;SDS011;67762;52.476;6.046;2023-03-21T15:31:24;88.03;;;82.63;;
43819;SDS011;67762;52.476;6.046;2023-03-21T15:33:54;50.03;;;47.22;;
43819;SDS011;67762;52.476;6.046;2023-03-21T15:36:20;53.88;;;50.80;;
43819;SDS011;67762;52.476;6.046;2023-03-21T15:38:50;69.95;;;65.97;;
43819;SDS011;67762;52.476;6.046;2023-03-21T15:43:46;61.92;;;58.33;;
43819;SDS011;67762;52.476;6.046;2023-03-21T15:46:30;53.03;;;49.40;;
43819;SDS011;67762;52.476;6.046;2023-03-21T15:49:06;56.28;;;52.72;;
43819;SDS011;67762;52.476;6.046;2023-03-21T15:51:32;60.25;;;56.58;;
43819;SDS011;67762;52.476;6.046;2023-03-21T15:53:59;59.38;;;55.88;;
43819;SDS011;67762;52.476;6.046;2023-03-21T15:56:26;54.17;;;50.80;;
43819;SDS011;67762;52.476;6.046;2023-03-21T15:59:01;57.17;;;53.67;;
43819;SDS011;67762;52.476;6.046;2023-03-21T16:01:29;57.83;;;54.63;;
43819;SDS011;67762;52.476;6.046;2023-03-21T16:04:08;60.63;;;56.97;;
43819;SDS011;67762;52.476;6.046;2023-03-21T16:06:37;50.55;;;47.92;;
43819;SDS011;67762;52.476;6.046;2023-03-21T16:09:15;50.28;;;46.80;;
43819;SDS011;67762;52.476;6.046;2023-03-21T16:11:57;62.70;;;59.33;;
43819;SDS011;67762;52.476;6.046;2023-03-21T16:14:24;54.85;;;51.67;;
43819;SDS011;67762;52.476;6.046;2023-03-21T16:16:54;57.67;;;54.03;;
43819;SDS011;67762;52.476;6.046;2023-03-21T16:19:21;48.05;;;45.30;;
43819;SDS011;67762;52.476;6.046;2023-03-21T16:21:48;49.58;;;46.72;;
43819;SDS011;67762;52.476;6.046;2023-03-21T16:24:14;58.05;;;54.30;;
43819;SDS011;67762;52.476;6.046;2023-03-21T16:26:41;56.40;;;52.83;;
43819;SDS011;67762;52.476;6.046;2023-03-21T16:29:12;55.97;;;52.55;;
43819;SDS011;67762;52.476;6.046;2023-03-21T16:31:39;53.35;;;49.97;;
43819;SDS011;67762;52.476;6.046;2023-03-21T16:34:05;52.95;;;49.55;;